Time;durP1;ratioP1;P1;durP2;ratioP2;P2;SDS_P1;SDS_P2;PMS_P1;PMS_P2;Temp;Humidity;BMP_temperature;BMP_pressure;BME280_temperature;BME280_humidity;BME280_pressure;Samples;Min_cycle;Max_cycle;Signal;HPM_P1;HPM_P2
2023/01/01 00:01:19;;;;;;;35.13;5.07;;;;;;;11.69;100.00;100083.22;5015388;28;20033;-71
2023/01/01 00:03:49;;;;;;;38.50;4.45;;;;;;;11.67;100.00;100086.28;4999062;28;20137;-71
2023/01/01 00:06:14;;;;;;;31.63;5.13;;;;;;;11.67;100.00;100080.72;5016436;28;20100;-71
2023/01/01 00:08:40;;;;;;;34.92;4.65;;;;;;;11.68;100.00;100081.59;5016217;28;20025;-71
2023/01/01 00:11:06;;;;;;;35.53;5.10;;;;;;;11.70;100.00;100079.28;5016406;28;20061;-71
2023/01/01 00:13:32;;;;;;;39.25;4.97;;;;;;;11.68;100.00;100085.19;5016321;28;20044;-71
2023/01/01 00:16:09;;;;;;;29.33;4.65;;;;;;;11.68;100.00;100090.75;5000951;28;20482;-71
2023/01/01 00:18:35;;;;;;;38.08;5.00;;;;;;;11.69;100.00;100103.50;5018655;28;20033;-71
2023/01/01 00:21:12;;;;;;;30.88;4.80;;;;;;;11.69;100.00;100097.94;5051337;28;20109;-71
2023/01/01 00:23:38;;;;;;;32.67;5.18;;;;;;;11.68;100.00;100101.06;5049331;28;20040;-71
2023/01/01 00:26:13;;;;;;;31.27;5.15;;;;;;;11.69;100.00;100116.59;5015397;28;20026;-71
2023/01/01 00:28:39;;;;;;;39.42;5.05;;;;;;;11.68;100.00;100107.44;4999173;28;20034;-71
2023/01/01 00:31:12;;;;;;;33.70;5.15;;;;;;;11.66;100.00;100106.91;4998714;28;20026;-71
2023/01/01 00:33:37;;;;;;;30.55;4.68;;;;;;;11.67;100.00;100102.16;4982674;28;20040;-71
2023/01/01 00:36:13;;;;;;;30.23;4.82;;;;;;;11.66;100.00;100094.97;5016502;28;20061;-71
2023/01/01 00:38:38;;;;;;;37.03;5.20;;;;;;;11.63;100.00;100111.13;4998706;28;20461;-71
2023/01/01 00:41:04;;;;;;;41.38;6.68;;;;;;;11.63;100.00;100113.91;5014989;28;20030;-71
2023/01/01 00:43:30;;;;;;;37.55;5.47;;;;;;;11.63;100.00;100113.09;5014860;28;20487;-71
2023/01/01 00:45:55;;;;;;;27.38;4.40;;;;;;;11.60;100.00;100108.97;4998606;28;20034;-71
2023/01/01 00:48:21;;;;;;;44.22;5.45;;;;;;;11.59;100.00;100112.09;5033330;28;20021;-71
2023/01/01 00:50:50;;;;;;;35.85;5.10;;;;;;;11.58;100.00;100121.53;5018160;28;20083;-71
2023/01/01 00:53:15;;;;;;;35.47;5.43;;;;;;;11.57;100.00;100117.94;5017978;28;20040;-71
2023/01/01 00:55:41;;;;;;;30.25;4.78;;;;;;;11.56;100.00;100113.53;5034481;28;20029;-71
2023/01/01 00:58:07;;;;;;;40.10;5.65;;;;;;;11.55;100.00;100116.59;5034831;28;20025;-71
2023/01/01 01:00:32;;;;;;;35.97;5.72;;;;;;;11.51;100.00;100126.72;5034598;28;20487;-71
2023/01/01 01:02:58;;;;;;;36.05;5.50;;;;;;;11.52;100.00;100137.50;5017921;28;20036;-71
2023/01/01 01:05:23;;;;;;;33.22;4.65;;;;;;;11.51;100.00;100129.50;5017342;28;20364;-71
2023/01/01 01:07:49;;;;;;;34.45;4.72;;;;;;;11.50;100.00;100136.19;5014386;28;20501;-71
2023/01/01 01:10:14;;;;;;;32.00;4.63;;;;;;;11.48;100.00;100155.13;5016448;28;20033;-71
2023/01/01 01:12:40;;;;;;;35.08;4.88;;;;;;;11.48;100.00;100157.91;5018224;28;20034;-71
2023/01/01 01:15:06;;;;;;;36.33;5.20;;;;;;;11.48;100.00;100152.34;5019424;28;20034;-71
2023/01/01 01:17:32;;;;;;;38.97;5.13;;;;;;;11.45;100.00;100166.84;5001872;28;20072;-71
2023/01/01 01:19:58;;;;;;;38.38;5.72;;;;;;;11.46;100.00;100162.97;5002118;28;20030;-71
2023/01/01 01:22:23;;;;;;;34.92;5.80;;;;;;;11.43;100.00;100152.47;5019174;28;20037;-71
2023/01/01 01:24:49;;;;;;;35.60;5.80;;;;;;;11.41;100.00;100138.84;5019374;28;20056;-71
2023/01/01 01:27:15;;;;;;;38.30;5.38;;;;;;;11.41;100.00;100128.56;5018056;28;20117;-71
2023/01/01 01:29:40;;;;;;;40.60;4.85;;;;;;;11.41;100.00;100149.97;4997117;28;20072;-71
2023/01/01 01:32:06;;;;;;;40.70;4.90;;;;;;;11.40;100.00;100148.34;5021238;28;20104;-71
2023/01/01 01:34:31;;;;;;;41.03;5.38;;;;;;;11.39;100.00;100132.78;5037794;28;20034;-71
2023/01/01 01:36:57;;;;;;;30.23;5.03;;;;;;;11.38;100.00;100140.28;5038314;28;20548;-72
2023/01/01 01:39:22;;;;;;;33.47;4.65;;;;;;;11.36;100.00;100156.44;5021090;28;20030;-71
2023/01/01 01:41:48;;;;;;;32.20;4.20;;;;;;;11.38;100.00;100151.41;5037281;28;20033;-71
2023/01/01 01:44:44;;;;;;;34.15;4.75;;;;;;;11.38;100.00;100153.38;5021176;28;20026;-71
2023/01/01 01:47:31;;;;;;;35.15;4.80;;;;;;;11.36;100.00;100150.88;5037500;28;20025;-71
2023/01/01 01:50:11;;;;;;;34.25;4.85;;;;;;;11.36;100.00;100148.13;5037347;28;20059;-71
2023/01/01 01:52:37;;;;;;;36.92;4.78;;;;;;;11.36;100.00;100162.00;5037466;28;20025;-71
2023/01/01 01:55:03;;;;;;;39.60;4.88;;;;;;;11.33;100.00;100168.19;5020877;28;20037;-71
2023/01/01 01:57:29;;;;;;;32.58;4.68;;;;;;;11.34;100.00;100153.19;5004363;28;20394;-71
2023/01/01 01:59:55;;;;;;;37.88;5.05;;;;;;;11.34;100.00;100149.59;5037161;28;20026;-71
2023/01/01 02:02:39;;;;;;;35.47;4.55;;;;;;;11.34;100.00;100160.69;5004440;28;20108;-71
2023/01/01 02:05:05;;;;;;;28.80;4.15;;;;;;;11.34;100.00;100167.09;5022646;28;20030;-71
2023/01/01 02:07:31;;;;;;;39.13;5.57;;;;;;;11.34;100.00;100161.53;5016960;28;20394;-71
2023/01/01 02:09:57;;;;;;;30.05;4.97;;;;;;;11.33;100.00;100159.84;5001110;28;20036;-71
2023/01/01 02:12:23;;;;;;;41.35;4.70;;;;;;;11.30;100.00;100162.44;4968583;28;20490;-71
2023/01/01 02:14:48;;;;;;;39.22;4.65;;;;;;;11.30;100.00;100159.66;4984989;28;20383;-71
2023/01/01 02:17:46;;;;;;;37.50;5.32;;;;;;;11.30;100.00;100166.03;5017166;28;20030;-71
2023/01/01 02:20:31;;;;;;;31.50;4.18;;;;;;;11.29;100.00;100169.13;4992951;28;20100;-71
2023/01/01 02:23:21;;;;;;;36.40;4.72;;;;;;;11.25;100.00;100174.47;5000826;28;20037;-71
2023/01/01 02:25:56;;;;;;;38.70;4.38;;;;;;;11.23;100.00;100184.25;5000578;28;20441;-71
2023/01/01 02:29:00;;;;;;;28.73;3.60;;;;;;;11.20;100.00;100182.91;5018069;28;20127;-71
2023/01/01 02:31:27;;;;;;;29.00;4.03;;;;;;;11.17;100.00;100202.97;5013110;28;20057;-71
2023/01/01 02:33:55;;;;;;;22.77;3.55;;;;;;;11.14;100.00;100200.78;5036794;28;20088;-71
2023/01/01 02:36:21;;;;;;;31.35;3.97;;;;;;;11.13;100.00;100204.72;5036502;28;20064;-71
2023/01/01 02:38:48;;;;;;;27.52;4.20;;;;;;;11.11;100.00;100206.97;5019540;28;20049;-71
2023/01/01 02:41:35;;;;;;;28.48;4.07;;;;;;;11.07;100.00;100205.94;5020247;28;20030;-71
2023/01/01 02:44:08;;;;;;;26.90;4.38;;;;;;;11.02;100.00;100181.84;5036337;28;20053;-72
2023/01/01 02:46:34;;;;;;;31.52;3.40;;;;;;;11.01;100.00;100166.31;5036505;28;20649;-71
2023/01/01 02:49:00;;;;;;;24.73;3.50;;;;;;;10.98;100.00;100182.75;5036314;28;20361;-71
2023/01/01 02:51:35;;;;;;;23.02;3.67;;;;;;;10.94;100.00;100179.75;5036128;28;20030;-71
2023/01/01 02:54:00;;;;;;;28.20;3.42;;;;;;;10.95;100.00;100187.81;5037501;28;20064;-71
2023/01/01 02:56:32;;;;;;;19.20;3.13;;;;;;;10.90;100.00;100187.88;5036199;28;20033;-71
2023/01/01 03:01:59;;;;;;;27.70;3.35;;;;;;;10.83;100.00;100193.00;5037345;28;20085;-71
2023/01/01 03:04:29;;;;;;;29.73;3.08;;;;;;;10.80;100.00;100195.56;5026843;28;20113;-71
2023/01/01 03:06:59;;;;;;;20.30;3.03;;;;;;;10.78;100.00;100187.53;5016005;28;20045;-71
2023/01/01 03:09:54;;;;;;;27.77;3.85;;;;;;;10.76;100.00;100187.03;5016157;28;20496;-71
2023/01/01 03:12:43;;;;;;;22.92;2.85;;;;;;;10.73;100.00;100195.97;5016234;28;20030;-71
2023/01/01 03:15:37;;;;;;;29.15;3.85;;;;;;;10.73;100.00;100212.63;5015963;28;20041;-71
2023/01/01 03:18:21;;;;;;;23.30;3.47;;;;;;;10.70;100.00;100227.13;5001349;28;20038;-71
2023/01/01 03:20:48;;;;;;;21.42;3.40;;;;;;;10.69;100.00;100225.44;5015811;28;20550;-71
2023/01/01 03:23:17;;;;;;;25.70;3.60;;;;;;;10.69;100.00;100217.13;4999556;28;20034;-71
2023/01/01 03:25:46;;;;;;;26.15;4.53;;;;;;;10.68;100.00;100226.59;4999862;28;20030;-71
2023/01/01 03:28:16;;;;;;;24.75;4.22;;;;;;;10.69;100.00;100236.56;4999794;28;20032;-71
2023/01/01 03:30:43;;;;;;;30.67;4.68;;;;;;;10.68;100.00;100226.59;5000027;28;20026;-71
2023/01/01 03:33:32;;;;;;;27.80;4.75;;;;;;;10.67;100.00;100230.47;4996880;28;20030;-71
2023/01/01 03:36:04;;;;;;;26.73;4.25;;;;;;;10.69;100.00;100236.56;5018856;28;20037;-71
2023/01/01 03:38:41;;;;;;;27.45;5.28;;;;;;;10.70;100.00;100232.69;5035115;28;20128;-71
2023/01/01 03:41:10;;;;;;;41.72;5.18;;;;;;;10.69;100.00;100250.44;5019987;28;20041;-71
2023/01/01 03:43:49;;;;;;;35.90;5.30;;;;;;;10.69;100.00;100244.88;5002881;28;20044;-71
2023/01/01 03:46:16;;;;;;;22.70;4.68;;;;;;;10.70;100.00;100244.59;5035318;28;20032;-71
2023/01/01 03:48:56;;;;;;;30.50;3.85;;;;;;;10.72;100.00;100245.09;5002538;28;20033;-71
2023/01/01 03:51:26;;;;;;;33.28;4.47;;;;;;;10.74;100.00;100244.81;5022691;28;20052;-71
2023/01/01 03:53:53;;;;;;;37.17;4.95;;;;;;;10.74;100.00;100253.97;5035479;28;20535;-71
2023/01/01 03:56:28;;;;;;;30.83;4.07;;;;;;;10.74;100.00;100242.84;5035283;28;20422;-71
2023/01/01 03:58:58;;;;;;;27.83;4.25;;;;;;;10.75;100.00;100229.78;5019855;28;20029;-71
2023/01/01 04:01:31;;;;;;;25.15;5.22;;;;;;;10.78;100.00;100242.25;5035042;28;20226;-71
2023/01/01 04:03:56;;;;;;;;;;;;;;;10.77;100.00;100240.63;5015940;28;20022;-71
2023/01/01 04:06:22;;;;;;;30.52;4.28;;;;;;;10.77;100.00;100235.88;5016396;28;19909;-71
2023/01/01 04:08:48;;;;;;;27.20;4.47;;;;;;;10.78;100.00;100229.22;5016470;28;20445;-71
2023/01/01 04:14:02;;;;;;;33.58;4.55;;;;;;;10.78;100.00;100229.22;5001635;28;20056;-71
2023/01/01 04:16:28;;;;;;;34.83;4.20;;;;;;;10.78;100.00;100217.25;4998848;28;20542;-71
2023/01/01 04:18:53;;;;;;;36.13;4.53;;;;;;;10.76;100.00;100223.13;5016420;28;20030;-71
2023/01/01 04:21:19;;;;;;;34.50;5.15;;;;;;;10.78;100.00;100225.59;4992298;28;20374;-71
2023/01/01 04:23:44;;;;;;;43.13;5.20;;;;;;;10.75;100.00;100224.22;5015322;28;20033;-71
2023/01/01 04:26:13;;;;;;;40.00;5.25;;;;;;;10.74;100.00;100226.19;5031517;28;20030;-71
2023/01/01 04:28:40;;;;;;;47.72;5.00;;;;;;;10.76;100.00;100238.97;5015607;28;20033;-71
2023/01/01 04:31:05;;;;;;;36.38;4.57;;;;;;;10.74;100.00;100236.47;5018469;28;20025;-71
2023/01/01 04:33:31;;;;;;;35.50;5.10;;;;;;;10.74;100.00;100233.72;5018432;28;20037;-71
2023/01/01 04:36:08;;;;;;;39.55;5.00;;;;;;;10.72;100.00;100241.50;5036140;28;20476;-71
2023/01/01 04:38:33;;;;;;;30.88;4.55;;;;;;;10.73;100.00;100244.00;5034352;28;20402;-71
2023/01/01 04:40:59;;;;;;;33.45;4.40;;;;;;;10.71;100.00;100249.03;5034878;28;20083;-71
2023/01/01 04:43:25;;;;;;;30.00;5.72;;;;;;;10.71;100.00;100245.44;5018117;28;20562;-71
2023/01/01 04:45:58;;;;;;;36.15;5.38;;;;;;;10.71;100.00;100253.75;5036284;28;20033;-71
2023/01/01 04:48:23;;;;;;;34.38;5.35;;;;;;;10.71;100.00;100253.75;5038452;28;20030;-71
2023/01/01 04:50:59;;;;;;;34.80;5.40;;;;;;;10.70;100.00;100243.78;5022044;28;20068;-71
2023/01/01 04:53:24;;;;;;;37.33;4.70;;;;;;;10.69;100.00;100244.88;5038353;28;20053;-71
2023/01/01 04:55:50;;;;;;;29.52;4.38;;;;;;;10.65;100.00;100238.31;5039639;28;20036;-71
2023/01/01 04:58:16;;;;;;;28.38;4.40;;;;;;;10.67;100.00;100234.09;5039793;28;20433;-71
2023/01/01 05:00:41;;;;;;;46.55;6.00;;;;;;;10.67;100.00;100230.47;5039639;28;20030;-71
2023/01/01 05:03:06;;;;;;;30.30;4.38;;;;;;;10.66;100.00;100235.22;5021740;28;20029;-71
2023/01/01 05:05:32;;;;;;;36.03;4.82;;;;;;;10.66;100.00;100239.94;5019790;28;20092;-71
2023/01/01 05:07:57;;;;;;;35.58;5.53;;;;;;;10.63;100.00;100235.81;5018182;28;20070;-71
2023/01/01 05:10:23;;;;;;;36.92;4.90;;;;;;;10.63;100.00;100251.66;4998997;28;20026;-71
2023/01/01 05:12:48;;;;;;;38.63;5.10;;;;;;;10.60;100.00;100257.81;5021682;28;20486;-71
2023/01/01 05:15:14;;;;;;;33.60;5.20;;;;;;;10.60;100.00;100255.03;5039385;28;20041;-71
2023/01/01 05:17:39;;;;;;;32.42;4.60;;;;;;;10.59;100.00;100254.22;5038160;28;20490;-71
2023/01/01 05:20:05;;;;;;;33.20;4.60;;;;;;;10.58;100.00;100254.50;5038090;28;20038;-71
2023/01/01 05:22:31;;;;;;;33.28;5.28;;;;;;;10.54;100.00;100254.28;5021612;28;20053;-71
2023/01/01 05:24:56;;;;;;;36.55;4.85;;;;;;;10.52;100.00;100253.75;5025147;28;20037;-71
2023/01/01 05:27:22;;;;;;;38.25;5.03;;;;;;;10.54;100.00;100259.03;5018051;28;20026;-71
2023/01/01 05:29:47;;;;;;;29.40;4.88;;;;;;;10.49;100.00;100263.50;5019441;28;20040;-71
2023/01/01 05:32:13;;;;;;;30.98;4.15;;;;;;;10.49;100.00;100263.50;5019184;28;20030;-71
2023/01/01 05:34:38;;;;;;;32.15;4.80;;;;;;;10.47;100.00;100249.13;4985206;28;20505;-71
2023/01/01 05:37:04;;;;;;;29.42;4.38;;;;;;;10.45;100.00;100250.53;5017489;28;20042;-71
2023/01/01 05:39:29;;;;;;;36.05;5.88;;;;;;;10.42;100.00;100248.34;5001693;28;20026;-71
2023/01/01 05:41:56;;;;;;;35.42;5.03;;;;;;;10.42;100.00;100243.63;5017880;28;20041;-71
2023/01/01 05:44:21;;;;;;;33.90;4.75;;;;;;;10.39;100.00;100265.59;5019111;28;20057;-71
2023/01/01 05:46:46;;;;;;;30.40;4.97;;;;;;;10.35;100.00;100257.03;5019037;28;20026;-71
2023/01/01 05:49:12;;;;;;;31.25;4.47;;;;;;;10.33;100.00;100253.75;5018933;28;20037;-71
2023/01/01 05:51:38;;;;;;;34.28;5.40;;;;;;;10.31;100.00;100256.00;4984783;28;20030;-71
2023/01/01 05:54:04;;;;;;;27.25;4.25;;;;;;;10.27;100.00;100268.81;5017693;28;20076;-71
2023/01/01 05:56:29;;;;;;;39.75;4.95;;;;;;;10.25;100.00;100262.69;5017662;28;20386;-71
2023/01/01 05:58:55;;;;;;;38.83;4.28;;;;;;;10.24;100.00;100269.38;5001326;28;20033;-71
2023/01/01 06:01:23;;;;;;;34.08;5.20;;;;;;;10.19;100.00;100264.72;5001430;28;20053;-71
2023/01/01 06:03:48;;;;;;;33.45;5.10;;;;;;;10.19;100.00;100275.00;5001221;28;20107;-71
2023/01/01 06:06:16;;;;;;;37.92;5.40;;;;;;;10.15;100.00;100266.44;5018398;28;20030;-71
2023/01/01 06:08:41;;;;;;;36.50;4.70;;;;;;;10.11;100.00;100270.09;5017459;28;20498;-71
2023/01/01 06:11:09;;;;;;;38.03;4.68;;;;;;;10.11;100.00;100272.88;5001108;28;20030;-71
2023/01/01 06:13:35;;;;;;;43.33;5.60;;;;;;;10.09;100.00;100286.25;5001212;28;20077;-71
2023/01/01 06:16:00;;;;;;;28.60;3.90;;;;;;;10.06;100.00;100282.94;5017043;28;20033;-71
2023/01/01 06:18:28;;;;;;;31.85;4.68;;;;;;;10.03;100.00;100294.63;5000882;28;20026;-71
2023/01/01 06:20:54;;;;;;;26.13;3.95;;;;;;;10.02;100.00;100295.72;5016854;28;20112;-71
2023/01/01 06:23:19;;;;;;;34.42;4.88;;;;;;;9.99;100.00;100299.09;5017174;28;20037;-71
2023/01/01 06:25:45;;;;;;;28.40;3.75;;;;;;;9.99;100.00;100299.09;5018226;28;20026;-71
2023/01/01 06:28:10;;;;;;;36.17;4.80;;;;;;;10.00;100.00;100294.38;5016958;28;20048;-71
2023/01/01 06:30:36;;;;;;;26.75;4.28;;;;;;;9.97;100.00;100301.34;5017075;28;20545;-71
2023/01/01 06:33:02;;;;;;;29.88;3.58;;;;;;;9.97;100.00;100308.81;4996891;28;20033;-71
2023/01/01 06:35:28;;;;;;;35.08;4.00;;;;;;;9.97;100.00;100322.69;5069690;28;20034;-71
2023/01/01 06:37:53;;;;;;;26.05;4.10;;;;;;;9.95;100.00;100325.78;5037316;28;20049;-71
2023/01/01 06:40:19;;;;;;;26.40;3.80;;;;;;;9.94;100.00;100324.13;5070079;28;20032;-71
2023/01/01 06:42:44;;;;;;;26.52;4.50;;;;;;;9.93;100.00;100330.78;5020110;28;20030;-71
2023/01/01 06:45:10;;;;;;;30.98;4.30;;;;;;;9.95;100.00;100324.97;5019974;28;20044;-71
2023/01/01 06:47:36;;;;;;;25.23;3.22;;;;;;;9.95;100.00;100330.50;5020248;28;20025;-71
2023/01/01 06:50:04;;;;;;;32.05;4.50;;;;;;;9.95;100.00;100331.34;5019953;28;20033;-71
2023/01/01 06:52:29;;;;;;;26.42;3.58;;;;;;;9.98;100.00;100330.75;5052564;28;20033;-71
2023/01/01 06:54:55;;;;;;;30.65;3.58;;;;;;;9.96;100.00;100324.66;5036147;28;20036;-71
2023/01/01 06:57:21;;;;;;;29.20;4.22;;;;;;;9.96;100.00;100321.88;5036282;28;20041;-71
2023/01/01 06:59:46;;;;;;;32.90;3.70;;;;;;;9.97;100.00;100340.19;5019672;28;20026;-71
2023/01/01 07:02:12;;;;;;;26.35;3.70;;;;;;;9.99;100.00;100339.88;5037403;28;20087;-71
2023/01/01 07:04:37;;;;;;;27.60;4.13;;;;;;;9.99;100.00;100332.38;5025173;28;20033;-71
2023/01/01 07:07:03;;;;;;;26.05;3.97;;;;;;;10.01;100.00;100334.88;5032486;28;20470;-71
2023/01/01 07:09:28;;;;;;;26.05;4.10;;;;;;;10.01;100.00;100338.47;5016939;28;20060;-71
2023/01/01 07:11:54;;;;;;;29.75;4.22;;;;;;;10.01;100.00;100343.19;5017763;28;20033;-71
2023/01/01 07:14:19;;;;;;;27.30;3.35;;;;;;;10.02;100.00;100340.13;4999724;28;20033;-71
2023/01/01 07:16:45;;;;;;;34.45;4.18;;;;;;;10.03;100.00;100329.88;5017417;28;20030;-71
2023/01/01 07:19:10;;;;;;;25.25;3.63;;;;;;;10.04;100.00;100332.34;5017206;28;20394;-71
2023/01/01 07:21:43;;;;;;;33.83;3.80;;;;;;;10.06;100.00;100337.59;4999614;28;20079;-71
2023/01/01 07:24:13;;;;;;;27.42;3.42;;;;;;;10.06;100.00;100341.19;5017338;28;20461;-71
2023/01/01 07:26:39;;;;;;;28.58;3.80;;;;;;;10.06;100.00;100335.66;5015940;28;20037;-71
2023/01/01 07:29:05;;;;;;;24.00;3.42;;;;;;;10.09;100.00;100334.22;5022860;28;20095;-71
2023/01/01 07:31:31;;;;;;;28.42;4.03;;;;;;;10.10;100.00;100332.28;5019527;28;20056;-71
2023/01/01 07:33:56;;;;;;;26.38;3.53;;;;;;;10.11;100.00;100337.50;5036637;28;20029;-71
2023/01/01 07:36:22;;;;;;;23.90;3.50;;;;;;;10.11;100.00;100336.69;5035296;28;20474;-71
2023/01/01 07:38:47;;;;;;;29.25;3.67;;;;;;;10.12;100.00;100332.81;5036752;28;20053;-71
2023/01/01 07:41:13;;;;;;;26.25;2.90;;;;;;;10.11;100.00;100322.81;5019013;28;20033;-71
2023/01/01 07:43:38;;;;;;;20.75;2.85;;;;;;;10.11;100.00;100318.09;5036668;28;20052;-71
2023/01/01 07:46:04;;;;;;;19.45;3.03;;;;;;;10.13;100.00;100313.09;5036512;28;20022;-71
2023/01/01 07:48:29;;;;;;;23.73;3.28;;;;;;;10.12;100.00;100291.19;5019055;28;20036;-71
2023/01/01 07:50:55;;;;;;;26.48;4.00;;;;;;;10.11;100.00;100284.78;5002296;28;20030;-71
2023/01/01 07:53:20;;;;;;;18.75;2.78;;;;;;;10.12;100.00;100280.91;5018627;28;20029;-71
2023/01/01 07:55:46;;;;;;;19.00;3.35;;;;;;;10.13;100.00;100288.09;5035256;28;20034;-71
2023/01/01 07:58:11;;;;;;;17.98;2.88;;;;;;;10.13;100.00;100287.28;5018779;28;20026;-71
2023/01/01 08:00:37;;;;;;;22.15;3.83;;;;;;;10.11;100.00;100287.56;5036469;28;20104;-71
2023/01/01 08:03:03;;;;;;;18.38;2.78;;;;;;;10.11;100.00;100295.06;5035337;28;20531;-71
2023/01/01 08:05:28;;;;;;;16.42;2.63;;;;;;;10.10;100.00;100293.44;5003777;28;20065;-71
2023/01/01 08:07:53;;;;;;;17.90;2.42;;;;;;;10.11;100.00;100297.84;4998785;28;20498;-71
2023/01/01 08:10:20;;;;;;;17.17;2.30;;;;;;;10.12;100.00;100285.66;5016659;28;20061;-71
2023/01/01 08:12:46;;;;;;;16.75;3.25;;;;;;;10.12;100.00;100269.81;5016768;28;20030;-71
2023/01/01 08:15:11;;;;;;;13.13;2.28;;;;;;;10.10;100.00;100266.50;5015195;28;20084;-71
2023/01/01 08:17:37;;;;;;;21.15;2.78;;;;;;;10.11;100.00;100272.88;4982773;28;20026;-71
2023/01/01 08:20:03;;;;;;;19.02;2.65;;;;;;;10.11;100.00;100283.97;4997927;28;20034;-71
2023/01/01 08:22:29;;;;;;;19.02;3.35;;;;;;;10.10;100.00;100282.34;5016514;28;20453;-71
2023/01/01 08:24:54;;;;;;;15.52;2.30;;;;;;;10.07;100.00;100295.66;5006067;28;20091;-71
2023/01/01 08:27:20;;;;;;;20.85;2.45;;;;;;;10.08;100.00;100290.94;5015048;28;20026;-71
2023/01/01 08:29:45;;;;;;;13.20;2.70;;;;;;;10.09;100.00;100305.66;5016483;28;20038;-71
2023/01/01 08:32:11;;;;;;;22.45;2.47;;;;;;;10.10;100.00;100318.41;5016311;28;20056;-71
2023/01/01 08:34:37;;;;;;;20.60;3.08;;;;;;;10.09;100.00;100327.88;5015095;28;20033;-71
2023/01/01 08:37:02;;;;;;;19.52;2.47;;;;;;;10.10;100.00;100332.28;4998150;28;20026;-71
2023/01/01 08:39:28;;;;;;;10.73;2.15;;;;;;;10.11;100.00;100336.69;5015029;28;20231;-71
2023/01/01 08:41:54;;;;;;;22.25;2.92;;;;;;;10.11;100.00;100336.69;4982380;28;20065;-71
2023/01/01 08:44:19;;;;;;;19.70;3.22;;;;;;;10.12;100.00;100338.38;4998785;28;20363;-71
2023/01/01 08:46:45;;;;;;;24.38;3.08;;;;;;;10.15;100.00;100329.44;5016115;28;20037;-71
2023/01/01 08:49:10;;;;;;;21.95;3.00;;;;;;;10.13;100.00;100326.13;5014898;28;20022;-71
2023/01/01 08:51:36;;;;;;;20.70;3.75;;;;;;;10.17;100.00;100318.84;5014875;28;20036;-71
2023/01/01 08:54:01;;;;;;;19.98;3.35;;;;;;;10.17;100.00;100316.09;5014784;28;20030;-71
2023/01/01 08:56:27;;;;;;;25.63;3.15;;;;;;;10.19;100.00;100325.78;4982554;28;20026;-71
2023/01/01 08:58:52;;;;;;;22.80;3.13;;;;;;;10.20;100.00;100327.44;4998635;28;20406;-71
2023/01/01 09:01:20;;;;;;;22.73;2.92;;;;;;;10.23;100.00;100326.03;5016139;28;20034;-71
2023/01/01 09:03:46;;;;;;;20.58;3.35;;;;;;;10.23;100.00;100335.16;5014430;28;20022;-71
2023/01/01 09:06:12;;;;;;;18.85;2.90;;;;;;;10.25;100.00;100341.25;5015555;28;20046;-71
2023/01/01 09:08:38;;;;;;;24.80;3.35;;;;;;;10.26;100.00;100358.72;5017448;28;20037;-71
2023/01/01 09:11:03;;;;;;;23.73;3.30;;;;;;;10.26;100.00;100359.56;5015891;28;20030;-71
2023/01/01 09:13:29;;;;;;;24.33;2.95;;;;;;;10.28;100.00;100378.72;4984852;28;20037;-71
2023/01/01 09:15:55;;;;;;;24.73;3.42;;;;;;;10.29;100.00;100392.31;4998430;28;20088;-71
2023/01/01 09:18:21;;;;;;;28.10;3.65;;;;;;;10.32;100.00;100393.66;5015056;28;20052;-71
2023/01/01 09:20:46;;;;;;;24.05;2.70;;;;;;;10.33;100.00;100395.31;4998785;28;20089;-71
2023/01/01 09:23:12;;;;;;;17.67;2.85;;;;;;;10.35;100.00;100384.75;5015655;28;20029;-71
2023/01/01 09:25:37;;;;;;;31.02;3.33;;;;;;;10.38;100.00;100392.47;5014619;28;20018;-71
2023/01/01 09:28:05;;;;;;;27.60;3.15;;;;;;;10.38;100.00;100381.38;5014700;28;20049;-71
2023/01/01 09:30:31;;;;;;;23.13;3.10;;;;;;;10.40;100.00;100370.81;4998430;28;20395;-71
2023/01/01 09:32:56;;;;;;;26.48;3.03;;;;;;;10.40;100.00;100361.66;5001249;28;20109;-71
2023/01/01 09:35:22;;;;;;;24.00;2.47;;;;;;;10.43;100.00;100363.84;5019288;28;20038;-71
2023/01/01 09:37:48;;;;;;;21.30;2.78;;;;;;;10.42;100.00;100357.47;5019272;28;20054;-71
2023/01/01 09:40:25;;;;;;;19.58;2.75;;;;;;;10.41;100.00;100361.34;5001584;28;20036;-71
2023/01/01 09:42:58;;;;;;;27.95;3.53;;;;;;;10.41;100.00;100344.69;5017931;28;20037;-71
2023/01/01 09:45:27;;;;;;;;;;;;;;;10.44;100.00;100335.75;5018438;28;20064;-71
2023/01/01 09:48:03;;;;;;;24.05;3.00;;;;;;;10.44;100.00;100327.44;5015978;28;19909;-71
2023/01/01 09:50:48;;;;;;;21.73;2.53;;;;;;;10.44;100.00;100313.53;5037747;28;20519;-71
2023/01/01 09:53:39;;;;;;;19.48;2.90;;;;;;;10.47;100.00;100310.19;5038082;28;20086;-71
2023/01/01 09:56:05;;;;;;;29.10;3.03;;;;;;;10.47;100.00;100309.34;5038631;28;20034;-71
2023/01/01 09:58:37;;;;;;;22.20;2.65;;;;;;;10.47;100.00;100307.44;5021098;28;20059;-71
2023/01/01 10:01:28;;;;;;;24.13;2.67;;;;;;;10.49;100.00;100316.25;5037402;28;20867;-71
2023/01/01 10:04:00;;;;;;;21.48;2.80;;;;;;;10.50;100.00;100306.81;5033395;28;20034;-71
2023/01/01 10:06:26;;;;;;;23.38;3.33;;;;;;;10.51;100.00;100310.41;5012781;28;20026;-71
2023/01/01 10:09:07;;;;;;;26.17;3.47;;;;;;;10.51;100.00;100305.69;5038419;28;20088;-71
2023/01/01 10:11:53;;;;;;;26.33;3.40;;;;;;;10.54;100.00;100300.66;5036721;28;20067;-71
2023/01/01 10:14:36;;;;;;;19.95;2.65;;;;;;;10.55;100.00;100303.13;5017299;28;20108;-71
2023/01/01 10:17:05;;;;;;;20.95;2.50;;;;;;;10.54;100.00;100311.78;4984930;28;20105;-71
2023/01/01 10:19:40;;;;;;;19.98;2.45;;;;;;;10.54;100.00;100320.09;4984918;28;20030;-71
2023/01/01 10:22:14;;;;;;;19.42;2.40;;;;;;;10.54;100.00;100318.16;4984727;28;20049;-71
2023/01/01 10:24:51;;;;;;;21.05;2.83;;;;;;;10.55;100.00;100317.00;5017183;28;20433;-71
2023/01/01 10:27:38;;;;;;;17.75;2.97;;;;;;;10.55;100.00;100311.47;5034380;28;20112;-71
2023/01/01 10:30:12;;;;;;;17.42;2.55;;;;;;;10.58;100.00;100298.94;5050273;28;20037;-71
2023/01/01 10:32:39;;;;;;;21.15;2.83;;;;;;;10.59;100.00;100293.09;4985045;28;20029;-71
2023/01/01 10:35:30;;;;;;;22.55;2.95;;;;;;;10.61;100.00;100298.34;4984884;28;20383;-71
2023/01/01 10:37:58;;;;;;;14.00;2.45;;;;;;;10.63;100.00;100301.66;5016690;28;20053;-71
2023/01/01 10:40:28;;;;;;;16.35;2.50;;;;;;;10.65;100.00;100304.97;5018062;28;20037;-71
2023/01/01 10:42:54;;;;;;;21.38;3.30;;;;;;;10.66;100.00;100289.94;4997534;28;20038;-71
2023/01/01 10:45:34;;;;;;;22.40;2.60;;;;;;;10.66;100.00;100287.97;5037759;28;20037;-71
2023/01/01 10:48:20;;;;;;;23.55;2.92;;;;;;;10.69;100.00;100276.25;5036476;28;20032;-71
2023/01/01 10:50:50;;;;;;;21.95;2.58;;;;;;;10.70;100.00;100279.88;5036238;28;20490;-71
2023/01/01 10:53:24;;;;;;;17.35;2.25;;;;;;;10.70;100.00;100272.38;5036201;28;20033;-71
2023/01/01 10:55:51;;;;;;;18.38;2.72;;;;;;;10.72;100.00;100270.09;5036292;28;20040;-71
2023/01/01 10:58:44;;;;;;;17.98;2.40;;;;;;;10.74;100.00;100259.53;5036332;28;20064;-71
2023/01/01 11:01:11;;;;;;;15.27;2.35;;;;;;;10.77;100.00;100257.28;5037882;28;20076;-71
2023/01/01 11:03:39;;;;;;;22.13;2.70;;;;;;;10.78;100.00;100259.78;5034563;28;20635;-71
2023/01/01 11:06:26;;;;;;;22.77;2.47;;;;;;;10.79;100.00;100250.28;5017183;28;20554;-71
2023/01/01 11:08:54;;;;;;;15.27;2.28;;;;;;;10.80;100.00;100254.72;5019732;28;20089;-71
2023/01/01 11:11:30;;;;;;;21.63;2.85;;;;;;;10.82;100.00;100238.56;5036060;28;20033;-71
2023/01/01 11:14:00;;;;;;;15.65;2.58;;;;;;;10.83;100.00;100234.66;5031353;28;20029;-71
2023/01/01 11:16:26;;;;;;;19.88;2.70;;;;;;;10.83;100.00;100223.56;5036237;28;20100;-71
2023/01/01 11:18:52;;;;;;;24.65;2.80;;;;;;;10.83;100.00;100219.94;5019452;28;20478;-71
2023/01/01 11:21:21;;;;;;;16.65;2.47;;;;;;;10.84;100.00;100214.09;5019162;28;20032;-71
2023/01/01 11:23:48;;;;;;;12.50;2.10;;;;;;;10.85;100.00;100212.16;5015907;28;20021;-71